sensor_id;sensor_type;location;lat;lon;timestamp;pressure;altitude;pressure_sealevel;temperature
17142;BMP180;32805;53.556;9.944;2023-07-22T00:00:05;100875.00;;;14.50
17142;BMP180;32805;53.556;9.944;2023-07-22T00:02:39;100875.00;;;14.40
17142;BMP180;32805;53.556;9.944;2023-07-22T00:05:08;100878.00;;;14.30
17142;BMP180;32805;53.556;9.944;2023-07-22T00:07:36;100879.00;;;14.30
17142;BMP180;32805;53.556;9.944;2023-07-22T00:10:04;100875.00;;;14.30
17142;BMP180;32805;53.556;9.944;2023-07-22T00:12:33;100874.00;;;14.20
17142;BMP180;32805;53.556;9.944;2023-07-22T00:15:01;100873.00;;;14.30
17142;BMP180;32805;53.556;9.944;2023-07-22T00:17:28;100870.00;;;14.20
17142;BMP180;32805;53.556;9.944;2023-07-22T00:19:56;100871.00;;;14.20
17142;BMP180;32805;53.556;9.944;2023-07-22T00:22:25;100860.00;;;14.20
17142;BMP180;32805;53.556;9.944;2023-07-22T00:24:57;100865.00;;;14.20
17142;BMP180;32805;53.556;9.944;2023-07-22T00:27:26;100880.00;;;14.20
17142;BMP180;32805;53.556;9.944;2023-07-22T00:29:54;100883.00;;;14.20
17142;BMP180;32805;53.556;9.944;2023-07-22T00:32:21;100878.00;;;14.10
17142;BMP180;32805;53.556;9.944;2023-07-22T00:34:49;100868.00;;;14.00
17142;BMP180;32805;53.556;9.944;2023-07-22T00:37:17;100875.00;;;14.10
17142;BMP180;32805;53.556;9.944;2023-07-22T00:39:46;100872.00;;;14.00
17142;BMP180;32805;53.556;9.944;2023-07-22T00:42:13;100877.00;;;14.00
17142;BMP180;32805;53.556;9.944;2023-07-22T00:44:41;100873.00;;;14.00
17142;BMP180;32805;53.556;9.944;2023-07-22T00:47:09;100877.00;;;14.00
17142;BMP180;32805;53.556;9.944;2023-07-22T00:49:37;100879.00;;;14.00
17142;BMP180;32805;53.556;9.944;2023-07-22T00:52:05;100882.00;;;14.00
17142;BMP180;32805;53.556;9.944;2023-07-22T00:54:33;100880.00;;;14.00
17142;BMP180;32805;53.556;9.944;2023-07-22T00:57:02;100883.00;;;14.00
17142;BMP180;32805;53.556;9.944;2023-07-22T00:59:30;100878.00;;;14.00
17142;BMP180;32805;53.556;9.944;2023-07-22T01:01:58;100868.00;;;13.90
17142;BMP180;32805;53.556;9.944;2023-07-22T01:04:25;100863.00;;;14.00
17142;BMP180;32805;53.556;9.944;2023-07-22T01:06:54;100870.00;;;13.90
17142;BMP180;32805;53.556;9.944;2023-07-22T01:09:22;100871.00;;;13.90
17142;BMP180;32805;53.556;9.944;2023-07-22T01:11:49;100863.00;;;13.90
17142;BMP180;32805;53.556;9.944;2023-07-22T01:14:18;100871.00;;;13.80
17142;BMP180;32805;53.556;9.944;2023-07-22T01:16:46;100874.00;;;13.80
17142;BMP180;32805;53.556;9.944;2023-07-22T01:19:14;100874.00;;;13.70
17142;BMP180;32805;53.556;9.944;2023-07-22T01:21:42;100871.00;;;13.70
17142;BMP180;32805;53.556;9.944;2023-07-22T01:24:11;100862.00;;;13.70
17142;BMP180;32805;53.556;9.944;2023-07-22T01:26:42;100868.00;;;13.70
17142;BMP180;32805;53.556;9.944;2023-07-22T01:29:21;100872.00;;;13.70
17142;BMP180;32805;53.556;9.944;2023-07-22T01:31:52;100866.00;;;13.70
17142;BMP180;32805;53.556;9.944;2023-07-22T01:34:20;100865.00;;;13.60
17142;BMP180;32805;53.556;9.944;2023-07-22T01:36:48;100859.00;;;13.60
17142;BMP180;32805;53.556;9.944;2023-07-22T01:39:18;100856.00;;;13.60
17142;BMP180;32805;53.556;9.944;2023-07-22T01:41:46;100861.00;;;13.60
17142;BMP180;32805;53.556;9.944;2023-07-22T01:44:14;100851.00;;;13.60
17142;BMP180;32805;53.556;9.944;2023-07-22T01:46:42;100859.00;;;13.60
17142;BMP180;32805;53.556;9.944;2023-07-22T01:49:10;100854.00;;;13.60
17142;BMP180;32805;53.556;9.944;2023-07-22T01:51:39;100849.00;;;13.50
17142;BMP180;32805;53.556;9.944;2023-07-22T01:54:07;100844.00;;;13.50
17142;BMP180;32805;53.556;9.944;2023-07-22T01:56:38;100856.00;;;13.50
17142;BMP180;32805;53.556;9.944;2023-07-22T01:59:06;100850.00;;;13.50
17142;BMP180;32805;53.556;9.944;2023-07-22T02:01:34;100852.00;;;13.40
17142;BMP180;32805;53.556;9.944;2023-07-22T02:04:01;100856.00;;;13.40
17142;BMP180;32805;53.556;9.944;2023-07-22T02:06:30;100847.00;;;13.30
17142;BMP180;32805;53.556;9.944;2023-07-22T02:08:58;100855.00;;;13.40
17142;BMP180;32805;53.556;9.944;2023-07-22T02:11:25;100844.00;;;13.30
17142;BMP180;32805;53.556;9.944;2023-07-22T02:13:54;100860.00;;;13.30
17142;BMP180;32805;53.556;9.944;2023-07-22T02:16:22;100853.00;;;13.30
17142;BMP180;32805;53.556;9.944;2023-07-22T02:18:50;100858.00;;;13.30
17142;BMP180;32805;53.556;9.944;2023-07-22T02:21:18;100863.00;;;13.30
17142;BMP180;32805;53.556;9.944;2023-07-22T02:23:46;100865.00;;;13.30
17142;BMP180;32805;53.556;9.944;2023-07-22T02:26:14;100861.00;;;13.20
17142;BMP180;32805;53.556;9.944;2023-07-22T02:28:42;100871.00;;;13.30
17142;BMP180;32805;53.556;9.944;2023-07-22T02:31:11;100865.00;;;13.20
17142;BMP180;32805;53.556;9.944;2023-07-22T02:33:39;100862.00;;;13.10
17142;BMP180;32805;53.556;9.944;2023-07-22T02:36:07;100874.00;;;13.20
17142;BMP180;32805;53.556;9.944;2023-07-22T02:38:34;100874.00;;;13.20
17142;BMP180;32805;53.556;9.944;2023-07-22T02:41:03;100874.00;;;13.20
17142;BMP180;32805;53.556;9.944;2023-07-22T02:43:33;100873.00;;;13.20
17142;BMP180;32805;53.556;9.944;2023-07-22T02:46:01;100877.00;;;13.10
17142;BMP180;32805;53.556;9.944;2023-07-22T02:48:32;100869.00;;;13.10
17142;BMP180;32805;53.556;9.944;2023-07-22T02:51:02;100881.00;;;13.00
17142;BMP180;32805;53.556;9.944;2023-07-22T02:53:31;100882.00;;;13.00
17142;BMP180;32805;53.556;9.944;2023-07-22T02:55:59;100878.00;;;13.00
17142;BMP180;32805;53.556;9.944;2023-07-22T02:58:27;100882.00;;;13.00
17142;BMP180;32805;53.556;9.944;2023-07-22T03:00:55;100879.00;;;13.10
17142;BMP180;32805;53.556;9.944;2023-07-22T03:03:24;100878.00;;;13.10
17142;BMP180;32805;53.556;9.944;2023-07-22T03:05:53;100884.00;;;13.10
17142;BMP180;32805;53.556;9.944;2023-07-22T03:08:21;100880.00;;;13.10
17142;BMP180;32805;53.556;9.944;2023-07-22T03:10:48;100879.00;;;13.20
17142;BMP180;32805;53.556;9.944;2023-07-22T03:13:16;100881.00;;;13.10
17142;BMP180;32805;53.556;9.944;2023-07-22T03:15:44;100882.00;;;13.10
17142;BMP180;32805;53.556;9.944;2023-07-22T03:18:12;100887.00;;;13.10
17142;BMP180;32805;53.556;9.944;2023-07-22T03:20:40;100885.00;;;13.10
17142;BMP180;32805;53.556;9.944;2023-07-22T03:23:09;100896.00;;;13.10
17142;BMP180;32805;53.556;9.944;2023-07-22T03:25:36;100901.00;;;13.00
17142;BMP180;32805;53.556;9.944;2023-07-22T03:28:05;100888.00;;;13.00
17142;BMP180;32805;53.556;9.944;2023-07-22T03:30:33;100891.00;;;13.10
17142;BMP180;32805;53.556;9.944;2023-07-22T03:33:01;100892.00;;;13.10
17142;BMP180;32805;53.556;9.944;2023-07-22T03:35:29;100899.00;;;13.20
17142;BMP180;32805;53.556;9.944;2023-07-22T03:37:57;100899.00;;;13.20
17142;BMP180;32805;53.556;9.944;2023-07-22T03:40:26;100907.00;;;13.30
17142;BMP180;32805;53.556;9.944;2023-07-22T03:42:57;100907.00;;;13.30
17142;BMP180;32805;53.556;9.944;2023-07-22T03:45:25;100912.00;;;13.40
17142;BMP180;32805;53.556;9.944;2023-07-22T03:47:59;100906.00;;;13.30
17142;BMP180;32805;53.556;9.944;2023-07-22T03:50:27;100902.00;;;13.40
17142;BMP180;32805;53.556;9.944;2023-07-22T03:52:55;100909.00;;;13.30
17142;BMP180;32805;53.556;9.944;2023-07-22T03:55:23;100905.00;;;13.30
17142;BMP180;32805;53.556;9.944;2023-07-22T03:57:52;100910.00;;;13.40
17142;BMP180;32805;53.556;9.944;2023-07-22T04:00:20;100910.00;;;13.30
17142;BMP180;32805;53.556;9.944;2023-07-22T04:02:48;100915.00;;;13.30
17142;BMP180;32805;53.556;9.944;2023-07-22T04:05:16;100910.00;;;13.20
17142;BMP180;32805;53.556;9.944;2023-07-22T04:07:44;100909.00;;;13.20
17142;BMP180;32805;53.556;9.944;2023-07-22T04:10:12;100911.00;;;13.20
17142;BMP180;32805;53.556;9.944;2023-07-22T04:12:40;100916.00;;;13.20
17142;BMP180;32805;53.556;9.944;2023-07-22T04:15:10;100923.00;;;13.30
17142;BMP180;32805;53.556;9.944;2023-07-22T04:17:39;100921.00;;;13.30
17142;BMP180;32805;53.556;9.944;2023-07-22T04:20:07;100912.00;;;13.30
17142;BMP180;32805;53.556;9.944;2023-07-22T04:22:35;100930.00;;;13.30
17142;BMP180;32805;53.556;9.944;2023-07-22T04:25:04;100939.00;;;13.40
17142;BMP180;32805;53.556;9.944;2023-07-22T04:27:32;100926.00;;;13.50
17142;BMP180;32805;53.556;9.944;2023-07-22T04:30:01;100926.00;;;13.60
17142;BMP180;32805;53.556;9.944;2023-07-22T04:32:30;100926.00;;;13.60
17142;BMP180;32805;53.556;9.944;2023-07-22T04:34:58;100931.00;;;13.70
17142;BMP180;32805;53.556;9.944;2023-07-22T04:37:25;100932.00;;;13.70
17142;BMP180;32805;53.556;9.944;2023-07-22T04:39:53;100934.00;;;13.70
17142;BMP180;32805;53.556;9.944;2023-07-22T04:42:21;100931.00;;;13.80
17142;BMP180;32805;53.556;9.944;2023-07-22T04:44:49;100949.00;;;13.80
17142;BMP180;32805;53.556;9.944;2023-07-22T04:47:16;100941.00;;;13.70
17142;BMP180;32805;53.556;9.944;2023-07-22T04:49:45;100947.00;;;13.50
17142;BMP180;32805;53.556;9.944;2023-07-22T04:52:13;100946.00;;;13.40
17142;BMP180;32805;53.556;9.944;2023-07-22T04:54:41;100956.00;;;13.50
17142;BMP180;32805;53.556;9.944;2023-07-22T04:57:09;100955.00;;;13.50
17142;BMP180;32805;53.556;9.944;2023-07-22T04:59:36;100953.00;;;13.70
17142;BMP180;32805;53.556;9.944;2023-07-22T05:02:04;100961.00;;;13.70
17142;BMP180;32805;53.556;9.944;2023-07-22T05:04:32;100959.00;;;13.80
17142;BMP180;32805;53.556;9.944;2023-07-22T05:07:01;100965.00;;;14.00
17142;BMP180;32805;53.556;9.944;2023-07-22T05:09:29;100955.00;;;13.90
17142;BMP180;32805;53.556;9.944;2023-07-22T05:11:56;100972.00;;;14.00
17142;BMP180;32805;53.556;9.944;2023-07-22T05:14:24;100965.00;;;14.10
17142;BMP180;32805;53.556;9.944;2023-07-22T05:16:51;100958.00;;;14.10
17142;BMP180;32805;53.556;9.944;2023-07-22T05:19:19;100964.00;;;14.20
17142;BMP180;32805;53.556;9.944;2023-07-22T05:21:47;100961.00;;;14.50
17142;BMP180;32805;53.556;9.944;2023-07-22T05:24:16;100959.00;;;14.70
17142;BMP180;32805;53.556;9.944;2023-07-22T05:26:43;100959.00;;;14.50
17142;BMP180;32805;53.556;9.944;2023-07-22T05:29:31;100956.00;;;14.30
17142;BMP180;32805;53.556;9.944;2023-07-22T05:31:59;100962.00;;;14.20
17142;BMP180;32805;53.556;9.944;2023-07-22T05:34:26;100961.00;;;14.30
17142;BMP180;32805;53.556;9.944;2023-07-22T05:36:54;100963.00;;;14.20
17142;BMP180;32805;53.556;9.944;2023-07-22T05:39:23;100972.00;;;14.20
17142;BMP180;32805;53.556;9.944;2023-07-22T05:41:51;100969.00;;;14.30
17142;BMP180;32805;53.556;9.944;2023-07-22T05:44:19;100968.00;;;14.10
17142;BMP180;32805;53.556;9.944;2023-07-22T05:46:47;100971.00;;;13.90
17142;BMP180;32805;53.556;9.944;2023-07-22T05:49:14;100973.00;;;14.00
17142;BMP180;32805;53.556;9.944;2023-07-22T05:51:44;100978.00;;;14.00
17142;BMP180;32805;53.556;9.944;2023-07-22T05:54:12;100977.00;;;14.00
17142;BMP180;32805;53.556;9.944;2023-07-22T05:56:41;100984.00;;;14.10
17142;BMP180;32805;53.556;9.944;2023-07-22T05:59:09;100972.00;;;14.10
17142;BMP180;32805;53.556;9.944;2023-07-22T06:01:37;100988.00;;;14.10
17142;BMP180;32805;53.556;9.944;2023-07-22T06:04:05;100983.00;;;14.10
17142;BMP180;32805;53.556;9.944;2023-07-22T06:06:32;100977.00;;;14.00
17142;BMP180;32805;53.556;9.944;2023-07-22T06:09:00;100989.00;;;14.10
17142;BMP180;32805;53.556;9.944;2023-07-22T06:11:28;100985.00;;;14.20
17142;BMP180;32805;53.556;9.944;2023-07-22T06:13:57;100972.00;;;14.10
17142;BMP180;32805;53.556;9.944;2023-07-22T06:16:25;100981.00;;;14.20
17142;BMP180;32805;53.556;9.944;2023-07-22T06:18:53;100986.00;;;14.30
17142;BMP180;32805;53.556;9.944;2023-07-22T06:21:21;100988.00;;;14.40
17142;BMP180;32805;53.556;9.944;2023-07-22T06:23:49;100990.00;;;14.50
17142;BMP180;32805;53.556;9.944;2023-07-22T06:26:16;100990.00;;;14.50
17142;BMP180;32805;53.556;9.944;2023-07-22T06:28:46;100992.00;;;14.50
17142;BMP180;32805;53.556;9.944;2023-07-22T06:31:15;100998.00;;;14.60
17142;BMP180;32805;53.556;9.944;2023-07-22T06:33:44;100990.00;;;14.70
17142;BMP180;32805;53.556;9.944;2023-07-22T06:36:12;101004.00;;;14.60
17142;BMP180;32805;53.556;9.944;2023-07-22T06:38:40;100995.00;;;14.70
17142;BMP180;32805;53.556;9.944;2023-07-22T06:41:07;101001.00;;;14.70
17142;BMP180;32805;53.556;9.944;2023-07-22T06:43:35;100993.00;;;14.80
17142;BMP180;32805;53.556;9.944;2023-07-22T06:46:03;100998.00;;;14.90
17142;BMP180;32805;53.556;9.944;2023-07-22T06:48:32;101000.00;;;15.00
17142;BMP180;32805;53.556;9.944;2023-07-22T06:50:59;101003.00;;;14.90
17142;BMP180;32805;53.556;9.944;2023-07-22T06:53:27;101002.00;;;15.00
17142;BMP180;32805;53.556;9.944;2023-07-22T06:55:55;100999.00;;;15.10
17142;BMP180;32805;53.556;9.944;2023-07-22T06:58:23;101000.00;;;15.20
17142;BMP180;32805;53.556;9.944;2023-07-22T07:00:52;100999.00;;;15.20
17142;BMP180;32805;53.556;9.944;2023-07-22T07:03:20;100999.00;;;15.20
17142;BMP180;32805;53.556;9.944;2023-07-22T07:05:53;101005.00;;;15.30
17142;BMP180;32805;53.556;9.944;2023-07-22T07:08:20;101005.00;;;15.30
17142;BMP180;32805;53.556;9.944;2023-07-22T07:10:48;100999.00;;;15.60
17142;BMP180;32805;53.556;9.944;2023-07-22T07:13:16;100997.00;;;15.60
17142;BMP180;32805;53.556;9.944;2023-07-22T07:15:46;101000.00;;;15.60
17142;BMP180;32805;53.556;9.944;2023-07-22T07:18:14;101004.00;;;15.60
17142;BMP180;32805;53.556;9.944;2023-07-22T07:20:42;101011.00;;;15.80
17142;BMP180;32805;53.556;9.944;2023-07-22T07:23:12;101003.00;;;15.90
17142;BMP180;32805;53.556;9.944;2023-07-22T07:25:42;101008.00;;;16.00
17142;BMP180;32805;53.556;9.944;2023-07-22T07:28:10;101010.00;;;16.10
17142;BMP180;32805;53.556;9.944;2023-07-22T07:30:39;101016.00;;;16.10
17142;BMP180;32805;53.556;9.944;2023-07-22T07:33:07;101021.00;;;16.20
17142;BMP180;32805;53.556;9.944;2023-07-22T07:35:35;101010.00;;;16.50
17142;BMP180;32805;53.556;9.944;2023-07-22T07:38:02;101017.00;;;16.60
17142;BMP180;32805;53.556;9.944;2023-07-22T07:40:32;101012.00;;;16.50
17142;BMP180;32805;53.556;9.944;2023-07-22T07:43:00;101023.00;;;16.30
17142;BMP180;32805;53.556;9.944;2023-07-22T07:45:27;101018.00;;;16.30
17142;BMP180;32805;53.556;9.944;2023-07-22T07:47:55;101020.00;;;16.50
17142;BMP180;32805;53.556;9.944;2023-07-22T07:50:23;101020.00;;;16.60
17142;BMP180;32805;53.556;9.944;2023-07-22T07:52:50;101022.00;;;16.70
17142;BMP180;32805;53.556;9.944;2023-07-22T07:55:18;101019.00;;;16.80
17142;BMP180;32805;53.556;9.944;2023-07-22T07:57:47;101025.00;;;16.80
17142;BMP180;32805;53.556;9.944;2023-07-22T08:00:15;101027.00;;;17.00
17142;BMP180;32805;53.556;9.944;2023-07-22T08:02:43;101029.00;;;17.00
17142;BMP180;32805;53.556;9.944;2023-07-22T08:05:11;101037.00;;;17.00
17142;BMP180;32805;53.556;9.944;2023-07-22T08:07:39;101023.00;;;16.80
17142;BMP180;32805;53.556;9.944;2023-07-22T08:10:07;101033.00;;;16.80
17142;BMP180;32805;53.556;9.944;2023-07-22T08:12:36;101036.00;;;17.10
17142;BMP180;32805;53.556;9.944;2023-07-22T08:15:06;101036.00;;;17.30
17142;BMP180;32805;53.556;9.944;2023-07-22T08:17:35;101032.00;;;17.30
17142;BMP180;32805;53.556;9.944;2023-07-22T08:20:04;101025.00;;;17.30
17142;BMP180;32805;53.556;9.944;2023-07-22T08:22:33;101039.00;;;17.30
17142;BMP180;32805;53.556;9.944;2023-07-22T08:25:01;101029.00;;;17.10
17142;BMP180;32805;53.556;9.944;2023-07-22T08:27:29;101034.00;;;17.00
17142;BMP180;32805;53.556;9.944;2023-07-22T08:29:57;101025.00;;;17.10
17142;BMP180;32805;53.556;9.944;2023-07-22T08:32:26;101036.00;;;17.10
17142;BMP180;32805;53.556;9.944;2023-07-22T08:34:53;101035.00;;;17.00
17142;BMP180;32805;53.556;9.944;2023-07-22T08:37:21;101038.00;;;16.80
17142;BMP180;32805;53.556;9.944;2023-07-22T08:39:49;101037.00;;;16.80
17142;BMP180;32805;53.556;9.944;2023-07-22T08:42:18;101038.00;;;16.90
17142;BMP180;32805;53.556;9.944;2023-07-22T08:44:48;101039.00;;;17.20
17142;BMP180;32805;53.556;9.944;2023-07-22T08:47:18;101033.00;;;17.40
17142;BMP180;32805;53.556;9.944;2023-07-22T08:49:51;101021.00;;;17.40
17142;BMP180;32805;53.556;9.944;2023-07-22T08:52:19;101034.00;;;17.50
17142;BMP180;32805;53.556;9.944;2023-07-22T08:54:49;101041.00;;;17.40
17142;BMP180;32805;53.556;9.944;2023-07-22T08:57:17;101053.00;;;17.20
17142;BMP180;32805;53.556;9.944;2023-07-22T08:59:45;101045.00;;;17.40
17142;BMP180;32805;53.556;9.944;2023-07-22T09:02:14;101033.00;;;17.50
17142;BMP180;32805;53.556;9.944;2023-07-22T09:04:42;101034.00;;;17.70
17142;BMP180;32805;53.556;9.944;2023-07-22T09:07:12;101039.00;;;17.80
17142;BMP180;32805;53.556;9.944;2023-07-22T09:09:41;101034.00;;;17.90
17142;BMP180;32805;53.556;9.944;2023-07-22T09:12:09;101045.00;;;18.00
17142;BMP180;32805;53.556;9.944;2023-07-22T09:14:38;101047.00;;;17.70
17142;BMP180;32805;53.556;9.944;2023-07-22T09:17:07;101032.00;;;17.70
17142;BMP180;32805;53.556;9.944;2023-07-22T09:19:34;101041.00;;;17.60
17142;BMP180;32805;53.556;9.944;2023-07-22T09:22:02;101035.00;;;17.60
17142;BMP180;32805;53.556;9.944;2023-07-22T09:24:31;101042.00;;;17.80
17142;BMP180;32805;53.556;9.944;2023-07-22T09:26:59;101026.00;;;18.00
17142;BMP180;32805;53.556;9.944;2023-07-22T09:29:34;101036.00;;;18.10
17142;BMP180;32805;53.556;9.944;2023-07-22T09:32:03;101033.00;;;18.20
17142;BMP180;32805;53.556;9.944;2023-07-22T09:34:30;101029.00;;;18.20
17142;BMP180;32805;53.556;9.944;2023-07-22T09:36:59;101023.00;;;18.30
17142;BMP180;32805;53.556;9.944;2023-07-22T09:39:28;101025.00;;;18.20
17142;BMP180;32805;53.556;9.944;2023-07-22T09:41:57;101030.00;;;18.20
17142;BMP180;32805;53.556;9.944;2023-07-22T09:44:29;101034.00;;;18.30
17142;BMP180;32805;53.556;9.944;2023-07-22T09:47:06;101023.00;;;18.30
17142;BMP180;32805;53.556;9.944;2023-07-22T09:49:39;101028.00;;;18.30
17142;BMP180;32805;53.556;9.944;2023-07-22T09:52:09;101030.00;;;18.80
17142;BMP180;32805;53.556;9.944;2023-07-22T09:54:46;101023.00;;;18.90
17142;BMP180;32805;53.556;9.944;2023-07-22T09:57:16;101025.00;;;18.90
17142;BMP180;32805;53.556;9.944;2023-07-22T09:59:45;101035.00;;;18.70
17142;BMP180;32805;53.556;9.944;2023-07-22T10:02:17;101025.00;;;18.90
17142;BMP180;32805;53.556;9.944;2023-07-22T10:04:46;101027.00;;;18.80
17142;BMP180;32805;53.556;9.944;2023-07-22T10:07:14;101030.00;;;18.80
17142;BMP180;32805;53.556;9.944;2023-07-22T10:09:42;101031.00;;;18.70
17142;BMP180;32805;53.556;9.944;2023-07-22T10:12:10;101032.00;;;19.10
17142;BMP180;32805;53.556;9.944;2023-07-22T10:14:43;101026.00;;;19.40
17142;BMP180;32805;53.556;9.944;2023-07-22T10:17:12;101029.00;;;19.10
17142;BMP180;32805;53.556;9.944;2023-07-22T10:19:40;101029.00;;;18.80
17142;BMP180;32805;53.556;9.944;2023-07-22T10:22:08;101017.00;;;18.90
17142;BMP180;32805;53.556;9.944;2023-07-22T10:24:38;101025.00;;;18.80
17142;BMP180;32805;53.556;9.944;2023-07-22T10:27:07;101010.00;;;18.70
17142;BMP180;32805;53.556;9.944;2023-07-22T10:29:34;101013.00;;;18.80
17142;BMP180;32805;53.556;9.944;2023-07-22T10:32:04;101011.00;;;18.50
17142;BMP180;32805;53.556;9.944;2023-07-22T10:34:32;101014.00;;;18.50
17142;BMP180;32805;53.556;9.944;2023-07-22T10:37:00;101027.00;;;18.70
17142;BMP180;32805;53.556;9.944;2023-07-22T10:39:28;101019.00;;;18.90
17142;BMP180;32805;53.556;9.944;2023-07-22T10:42:02;101011.00;;;19.00
17142;BMP180;32805;53.556;9.944;2023-07-22T10:44:32;101019.00;;;19.20
17142;BMP180;32805;53.556;9.944;2023-07-22T10:47:00;101012.00;;;19.50
17142;BMP180;32805;53.556;9.944;2023-07-22T10:49:44;101009.00;;;19.50
17142;BMP180;32805;53.556;9.944;2023-07-22T10:52:12;101022.00;;;19.40
17142;BMP180;32805;53.556;9.944;2023-07-22T10:54:41;101012.00;;;19.50
17142;BMP180;32805;53.556;9.944;2023-07-22T10:57:23;101018.00;;;19.70
17142;BMP180;32805;53.556;9.944;2023-07-22T10:59:52;101024.00;;;19.60
17142;BMP180;32805;53.556;9.944;2023-07-22T11:02:24;101023.00;;;19.60
17142;BMP180;32805;53.556;9.944;2023-07-22T11:04:56;101006.00;;;20.00
17142;BMP180;32805;53.556;9.944;2023-07-22T11:07:31;101016.00;;;20.20
17142;BMP180;32805;53.556;9.944;2023-07-22T11:10:14;101007.00;;;20.20
17142;BMP180;32805;53.556;9.944;2023-07-22T11:12:44;101004.00;;;20.50
17142;BMP180;32805;53.556;9.944;2023-07-22T11:15:15;101001.00;;;20.70
17142;BMP180;32805;53.556;9.944;2023-07-22T11:17:43;101008.00;;;21.10
17142;BMP180;32805;53.556;9.944;2023-07-22T11:20:12;101000.00;;;21.20
17142;BMP180;32805;53.556;9.944;2023-07-22T11:22:40;101002.00;;;21.40
17142;BMP180;32805;53.556;9.944;2023-07-22T11:25:08;101011.00;;;21.40
17142;BMP180;32805;53.556;9.944;2023-07-22T11:27:36;101003.00;;;21.40
17142;BMP180;32805;53.556;9.944;2023-07-22T11:30:04;100998.00;;;21.70
17142;BMP180;32805;53.556;9.944;2023-07-22T11:32:33;101002.00;;;21.50
17142;BMP180;32805;53.556;9.944;2023-07-22T11:35:01;100995.00;;;21.30
17142;BMP180;32805;53.556;9.944;2023-07-22T11:37:30;100997.00;;;21.30
17142;BMP180;32805;53.556;9.944;2023-07-22T11:40:00;100997.00;;;21.30
17142;BMP180;32805;53.556;9.944;2023-07-22T11:42:28;100987.00;;;21.30
17142;BMP180;32805;53.556;9.944;2023-07-22T11:44:57;100997.00;;;21.30
17142;BMP180;32805;53.556;9.944;2023-07-22T11:47:28;100989.00;;;21.00
17142;BMP180;32805;53.556;9.944;2023-07-22T11:49:58;101000.00;;;21.10
17142;BMP180;32805;53.556;9.944;2023-07-22T11:52:25;100986.00;;;21.10
17142;BMP180;32805;53.556;9.944;2023-07-22T11:54:59;100987.00;;;20.90
17142;BMP180;32805;53.556;9.944;2023-07-22T11:57:29;100990.00;;;20.90
17142;BMP180;32805;53.556;9.944;2023-07-22T11:59:57;100987.00;;;21.10
17142;BMP180;32805;53.556;9.944;2023-07-22T12:02:26;100977.00;;;21.30
17142;BMP180;32805;53.556;9.944;2023-07-22T12:04:57;100986.00;;;21.40
17142;BMP180;32805;53.556;9.944;2023-07-22T12:07:26;100980.00;;;21.80
17142;BMP180;32805;53.556;9.944;2023-07-22T12:09:57;100974.00;;;22.00
17142;BMP180;32805;53.556;9.944;2023-07-22T12:12:32;100979.00;;;22.10
17142;BMP180;32805;53.556;9.944;2023-07-22T12:15:08;100969.00;;;22.00
17142;BMP180;32805;53.556;9.944;2023-07-22T12:17:47;100970.00;;;22.60
17142;BMP180;32805;53.556;9.944;2023-07-22T12:20:16;100971.00;;;22.80
17142;BMP180;32805;53.556;9.944;2023-07-22T12:22:43;100964.00;;;22.40
17142;BMP180;32805;53.556;9.944;2023-07-22T12:25:13;100967.00;;;22.40
17142;BMP180;32805;53.556;9.944;2023-07-22T12:27:41;100975.00;;;22.00
17142;BMP180;32805;53.556;9.944;2023-07-22T12:30:09;100973.00;;;21.40
17142;BMP180;32805;53.556;9.944;2023-07-22T12:32:37;100970.00;;;21.20
17142;BMP180;32805;53.556;9.944;2023-07-22T12:35:06;100980.00;;;20.90
17142;BMP180;32805;53.556;9.944;2023-07-22T12:37:34;100979.00;;;20.50
17142;BMP180;32805;53.556;9.944;2023-07-22T12:40:02;100982.00;;;20.30
17142;BMP180;32805;53.556;9.944;2023-07-22T12:42:33;100986.00;;;20.20
17142;BMP180;32805;53.556;9.944;2023-07-22T12:45:01;100986.00;;;20.30
17142;BMP180;32805;53.556;9.944;2023-07-22T12:47:29;100995.00;;;20.30
17142;BMP180;32805;53.556;9.944;2023-07-22T12:49:57;101001.00;;;20.20
17142;BMP180;32805;53.556;9.944;2023-07-22T12:52:25;100991.00;;;19.70
17142;BMP180;32805;53.556;9.944;2023-07-22T12:54:53;100997.00;;;19.80
17142;BMP180;32805;53.556;9.944;2023-07-22T12:57:21;101011.00;;;19.70
17142;BMP180;32805;53.556;9.944;2023-07-22T12:59:50;101011.00;;;19.60
17142;BMP180;32805;53.556;9.944;2023-07-22T13:02:17;101016.00;;;19.00
17142;BMP180;32805;53.556;9.944;2023-07-22T13:04:45;101026.00;;;18.70
17142;BMP180;32805;53.556;9.944;2023-07-22T13:07:13;101020.00;;;18.50
17142;BMP180;32805;53.556;9.944;2023-07-22T13:09:40;101022.00;;;18.60
17142;BMP180;32805;53.556;9.944;2023-07-22T13:12:09;101013.00;;;18.60
17142;BMP180;32805;53.556;9.944;2023-07-22T13:14:37;101005.00;;;18.50
17142;BMP180;32805;53.556;9.944;2023-07-22T13:17:06;101023.00;;;18.70
17142;BMP180;32805;53.556;9.944;2023-07-22T13:19:34;101019.00;;;18.60
17142;BMP180;32805;53.556;9.944;2023-07-22T13:22:02;101017.00;;;18.40
17142;BMP180;32805;53.556;9.944;2023-07-22T13:24:31;101036.00;;;18.10
17142;BMP180;32805;53.556;9.944;2023-07-22T13:26:59;101033.00;;;17.70
17142;BMP180;32805;53.556;9.944;2023-07-22T13:29:27;101042.00;;;17.30
17142;BMP180;32805;53.556;9.944;2023-07-22T13:31:55;101051.00;;;17.00
17142;BMP180;32805;53.556;9.944;2023-07-22T13:34:24;101054.00;;;16.70
17142;BMP180;32805;53.556;9.944;2023-07-22T13:36:52;101045.00;;;16.40
17142;BMP180;32805;53.556;9.944;2023-07-22T13:39:19;101050.00;;;16.10
17142;BMP180;32805;53.556;9.944;2023-07-22T13:41:47;101053.00;;;16.30
17142;BMP180;32805;53.556;9.944;2023-07-22T13:44:15;101047.00;;;16.50
17142;BMP180;32805;53.556;9.944;2023-07-22T13:46:42;101040.00;;;16.90
17142;BMP180;32805;53.556;9.944;2023-07-22T13:49:10;101034.00;;;16.90
17142;BMP180;32805;53.556;9.944;2023-07-22T13:51:39;101035.00;;;17.20
17142;BMP180;32805;53.556;9.944;2023-07-22T13:54:07;101032.00;;;17.40
17142;BMP180;32805;53.556;9.944;2023-07-22T13:56:35;101017.00;;;17.70
17142;BMP180;32805;53.556;9.944;2023-07-22T13:59:03;101023.00;;;18.00
17142;BMP180;32805;53.556;9.944;2023-07-22T14:01:31;101018.00;;;18.20
17142;BMP180;32805;53.556;9.944;2023-07-22T14:03:59;101017.00;;;18.20